首页
METAR-TAF:

METAR-TAF

机场 :

空军基地

Landivisiau, 法国

纬度: 48-31N, 经度: 004-09W, 海拔: 106米

当前天气观测

该预报发布于16分钟前的18:00 UTC
风速18节,风向东北,有时为28节阵风
温度 9°C
湿度 71%
气压 1025 hPa
能见度10公里或以上
阴天层高于3700英尺

METAR: LFRJ 281800Z AUTO 05018G28KT 9999 OVC037 09/04 Q1025

时间: 19:16 (18:16 UTC)

预报

该预报发布于28小时和16分钟前的14:00 UTC
预报有效从27日的 15点(UTC)到 27日的 24点(UTC)
风速10节,风向东北
能见度10公里或以上
1500米以下无云,无积雨云
短暂存在
从 27日的 15点(UTC)到 27日的 18点(UTC)
风速15节,风向东北,有时为25节阵风
几率 30% :
短暂存在
从 27日的 21点(UTC)到 27日的 24点(UTC)
能見度: 3000
轻雾

TAF: LFRJ 271400Z 2715/2724 05010KT CAVOK TEMPO 2715/2718 04015G25KT PROB30 TEMPO 2721/2724 3000 BR

超过4000个机场的气象观测和天气预报(METAR&TAF报告)。

可查询的气象台以黄色和红色小点在地图上表示。

将鼠标移到小点上方,可查看气象台名称。

然后点击查看天气观测和预报。

如需切换地图:点击带黑十字的绿色按钮放大地图;点击带横线的绿色按钮缩小地图;或者点击绿色箭头查看邻近地区的地图。


METAR-TAF: